sensor_id;sensor_type;location;lat;lon;timestamp;temperature;humidity
4908;DHT22;64375;51.540;7.364;2022-12-18T00:02:01;1.70;69.30
4908;DHT22;64375;51.540;7.364;2022-12-18T00:04:35;1.90;75.30
4908;DHT22;64375;51.540;7.364;2022-12-18T00:07:03;2.20;76.00
4908;DHT22;64375;51.540;7.364;2022-12-18T00:09:32;1.80;68.90
4908;DHT22;64375;51.540;7.364;2022-12-18T00:12:06;1.10;68.90
4908;DHT22;64375;51.540;7.364;2022-12-18T00:14:44;1.50;78.60
4908;DHT22;64375;51.540;7.364;2022-12-18T00:17:12;1.90;77.80
4908;DHT22;64375;51.540;7.364;2022-12-18T00:19:40;1.40;69.90
4908;DHT22;64375;51.540;7.364;2022-12-18T00:22:17;1.40;76.90
4908;DHT22;64375;51.540;7.364;2022-12-18T00:24:46;1.80;78.10
4908;DHT22;64375;51.540;7.364;2022-12-18T00:27:16;1.60;70.90
4908;DHT22;64375;51.540;7.364;2022-12-18T00:29:48;0.90;70.20
4908;DHT22;64375;51.540;7.364;2022-12-18T00:32:16;1.60;90.80
4908;DHT22;64375;51.540;7.364;2022-12-18T00:34:53;2.40;94.40
4908;DHT22;64375;51.540;7.364;2022-12-18T00:37:20;3.00;91.90
4908;DHT22;64375;51.540;7.364;2022-12-18T00:40:03;3.00;85.80
4908;DHT22;64375;51.540;7.364;2022-12-18T00:42:31;3.70;92.80
4908;DHT22;64375;51.540;7.364;2022-12-18T00:45:20;3.60;84.40
4908;DHT22;64375;51.540;7.364;2022-12-18T00:47:51;2.60;70.20
4908;DHT22;64375;51.540;7.364;2022-12-18T00:50:26;2.80;79.70
4908;DHT22;64375;51.540;7.364;2022-12-18T00:52:54;3.00;80.30
4908;DHT22;64375;51.540;7.364;2022-12-18T00:55:26;2.40;67.50
4908;DHT22;64375;51.540;7.364;2022-12-18T00:57:54;2.10;75.50
4908;DHT22;64375;51.540;7.364;2022-12-18T01:00:22;2.50;80.40
4908;DHT22;64375;51.540;7.364;2022-12-18T01:02:54;2.90;82.50
4908;DHT22;64375;51.540;7.364;2022-12-18T01:05:25;2.30;70.00
4908;DHT22;64375;51.540;7.364;2022-12-18T01:07:53;2.80;82.90
4908;DHT22;64375;51.540;7.364;2022-12-18T01:10:23;2.90;77.90
4908;DHT22;64375;51.540;7.364;2022-12-18T01:12:58;2.60;69.80
4908;DHT22;64375;51.540;7.364;2022-12-18T01:15:32;2.20;69.60
4908;DHT22;64375;51.540;7.364;2022-12-18T01:18:00;2.80;87.50
4908;DHT22;64375;51.540;7.364;2022-12-18T01:20:28;3.50;94.50
4908;DHT22;64375;51.540;7.364;2022-12-18T01:22:56;4.00;94.20
4908;DHT22;64375;51.540;7.364;2022-12-18T01:25:30;4.40;94.20
4908;DHT22;64375;51.540;7.364;2022-12-18T01:27:59;4.70;93.90
4908;DHT22;64375;51.540;7.364;2022-12-18T01:30:30;4.30;80.40
4908;DHT22;64375;51.540;7.364;2022-12-18T01:32:58;3.40;71.10
4908;DHT22;64375;51.540;7.364;2022-12-18T01:35:29;3.60;82.40
4908;DHT22;64375;51.540;7.364;2022-12-18T01:38:00;4.00;89.20
4908;DHT22;64375;51.540;7.364;2022-12-18T01:40:28;3.60;73.80
4908;DHT22;64375;51.540;7.364;2022-12-18T01:42:56;3.70;81.90
4908;DHT22;64375;51.540;7.364;2022-12-18T01:45:28;3.80;83.60
4908;DHT22;64375;51.540;7.364;2022-12-18T01:48:04;3.50;70.60
4908;DHT22;64375;51.540;7.364;2022-12-18T01:50:37;2.60;70.80
4908;DHT22;64375;51.540;7.364;2022-12-18T01:53:10;3.10;86.00
4908;DHT22;64375;51.540;7.364;2022-12-18T01:55:43;3.40;88.30
4908;DHT22;64375;51.540;7.364;2022-12-18T01:58:32;2.80;69.00
4908;DHT22;64375;51.540;7.364;2022-12-18T02:01:10;3.20;82.20
4908;DHT22;64375;51.540;7.364;2022-12-18T02:03:41;3.70;91.90
4908;DHT22;64375;51.540;7.364;2022-12-18T02:06:15;3.80;87.70
4908;DHT22;64375;51.540;7.364;2022-12-18T02:08:55;3.80;86.40
4908;DHT22;64375;51.540;7.364;2022-12-18T02:11:46;3.90;85.60
4908;DHT22;64375;51.540;7.364;2022-12-18T02:14:20;3.10;66.10
4908;DHT22;64375;51.540;7.364;2022-12-18T02:16:56;1.80;63.90
4908;DHT22;64375;51.540;7.364;2022-12-18T02:19:45;1.50;68.70
4908;DHT22;64375;51.540;7.364;2022-12-18T02:22:24;1.80;76.40
4908;DHT22;64375;51.540;7.364;2022-12-18T02:25:10;1.50;66.30
4908;DHT22;64375;51.540;7.364;2022-12-18T02:27:47;1.80;78.90
4908;DHT22;64375;51.540;7.364;2022-12-18T02:30:18;2.50;89.30
4908;DHT22;64375;51.540;7.364;2022-12-18T02:32:49;2.20;74.30
4908;DHT22;64375;51.540;7.364;2022-12-18T02:35:23;2.20;76.60
4908;DHT22;64375;51.540;7.364;2022-12-18T02:37:55;3.10;93.90
4908;DHT22;64375;51.540;7.364;2022-12-18T02:40:27;3.80;95.80
4908;DHT22;64375;51.540;7.364;2022-12-18T02:43:02;4.30;95.30
4908;DHT22;64375;51.540;7.364;2022-12-18T02:45:33;4.60;94.20
4908;DHT22;64375;51.540;7.364;2022-12-18T02:48:01;4.60;92.60
4908;DHT22;64375;51.540;7.364;2022-12-18T02:50:35;3.90;76.30
4908;DHT22;64375;51.540;7.364;2022-12-18T02:53:12;3.60;80.50
4908;DHT22;64375;51.540;7.364;2022-12-18T02:55:56;3.60;80.30
4908;DHT22;64375;51.540;7.364;2022-12-18T02:58:34;2.80;66.20
4908;DHT22;64375;51.540;7.364;2022-12-18T03:01:15;2.00;67.70
4908;DHT22;64375;51.540;7.364;2022-12-18T03:03:51;2.30;81.00
4908;DHT22;64375;51.540;7.364;2022-12-18T03:06:26;2.20;71.40
4908;DHT22;64375;51.540;7.364;2022-12-18T03:09:04;1.30;65.90
4908;DHT22;64375;51.540;7.364;2022-12-18T03:11:40;1.70;77.50
4908;DHT22;64375;51.540;7.364;2022-12-18T03:14:31;1.90;74.50
4908;DHT22;64375;51.540;7.364;2022-12-18T03:17:03;0.90;66.00
4908;DHT22;64375;51.540;7.364;2022-12-18T03:19:40;0.70;72.30
4908;DHT22;64375;51.540;7.364;2022-12-18T03:22:10;1.10;77.40
4908;DHT22;64375;51.540;7.364;2022-12-18T03:24:38;1.30;73.90
4908;DHT22;64375;51.540;7.364;2022-12-18T03:27:08;1.40;72.90
4908;DHT22;64375;51.540;7.364;2022-12-18T03:29:44;2.30;93.60
4908;DHT22;64375;51.540;7.364;2022-12-18T03:32:23;3.30;97.10
4908;DHT22;64375;51.540;7.364;2022-12-18T03:34:58;4.00;96.50
4908;DHT22;64375;51.540;7.364;2022-12-18T03:37:30;4.50;95.60
4908;DHT22;64375;51.540;7.364;2022-12-18T03:40:01;4.60;93.70
4908;DHT22;64375;51.540;7.364;2022-12-18T03:42:31;3.70;74.90
4908;DHT22;64375;51.540;7.364;2022-12-18T03:45:06;2.70;72.70
4908;DHT22;64375;51.540;7.364;2022-12-18T03:47:42;2.50;74.20
4908;DHT22;64375;51.540;7.364;2022-12-18T03:50:22;2.40;71.90
4908;DHT22;64375;51.540;7.364;2022-12-18T03:52:57;1.90;69.90
4908;DHT22;64375;51.540;7.364;2022-12-18T03:55:30;2.10;75.90
4908;DHT22;64375;51.540;7.364;2022-12-18T03:58:04;2.60;83.70
4908;DHT22;64375;51.540;7.364;2022-12-18T04:00:49;2.00;66.90
4908;DHT22;64375;51.540;7.364;2022-12-18T04:03:23;1.90;71.10
4908;DHT22;64375;51.540;7.364;2022-12-18T04:05:54;2.70;90.40
4908;DHT22;64375;51.540;7.364;2022-12-18T04:08:23;2.30;75.10
4908;DHT22;64375;51.540;7.364;2022-12-18T04:10:55;2.70;84.50
4908;DHT22;64375;51.540;7.364;2022-12-18T04:13:23;3.20;90.20
4908;DHT22;64375;51.540;7.364;2022-12-18T04:15:52;2.70;71.70
4908;DHT22;64375;51.540;7.364;2022-12-18T04:18:20;2.00;70.10
4908;DHT22;64375;51.540;7.364;2022-12-18T04:20:48;2.30;77.10
4908;DHT22;64375;51.540;7.364;2022-12-18T04:23:16;2.80;88.50
4908;DHT22;64375;51.540;7.364;2022-12-18T04:25:45;2.40;71.30
4908;DHT22;64375;51.540;7.364;2022-12-18T04:28:17;2.90;91.40
4908;DHT22;64375;51.540;7.364;2022-12-18T04:30:48;3.60;94.50
4908;DHT22;64375;51.540;7.364;2022-12-18T04:33:20;4.00;94.60
4908;DHT22;64375;51.540;7.364;2022-12-18T04:35:48;4.30;93.60
4908;DHT22;64375;51.540;7.364;2022-12-18T04:38:15;4.60;94.10
4908;DHT22;64375;51.540;7.364;2022-12-18T04:40:43;4.80;93.70
4908;DHT22;64375;51.540;7.364;2022-12-18T04:43:11;4.10;78.30
4908;DHT22;64375;51.540;7.364;2022-12-18T04:45:42;4.00;85.00
4908;DHT22;64375;51.540;7.364;2022-12-18T04:48:10;3.80;81.20
4908;DHT22;64375;51.540;7.364;2022-12-18T04:50:42;3.00;67.30
4908;DHT22;64375;51.540;7.364;2022-12-18T04:53:13;2.70;75.90
4908;DHT22;64375;51.540;7.364;2022-12-18T04:55:41;3.00;80.20
4908;DHT22;64375;51.540;7.364;2022-12-18T04:58:12;2.50;67.40
4908;DHT22;64375;51.540;7.364;2022-12-18T05:00:48;2.00;70.40
4908;DHT22;64375;51.540;7.364;2022-12-18T05:03:19;2.20;75.40
4908;DHT22;64375;51.540;7.364;2022-12-18T05:05:50;2.60;86.80
4908;DHT22;64375;51.540;7.364;2022-12-18T05:08:21;2.50;75.70
4908;DHT22;64375;51.540;7.364;2022-12-18T05:10:58;3.10;91.10
4908;DHT22;64375;51.540;7.364;2022-12-18T05:13:27;3.50;91.20
4908;DHT22;64375;51.540;7.364;2022-12-18T05:16:00;3.30;81.40
4908;DHT22;64375;51.540;7.364;2022-12-18T05:18:31;3.80;92.50
4908;DHT22;64375;51.540;7.364;2022-12-18T05:21:00;4.10;92.80
4908;DHT22;64375;51.540;7.364;2022-12-18T05:23:28;4.30;92.40
4908;DHT22;64375;51.540;7.364;2022-12-18T05:25:58;4.00;81.40
4908;DHT22;64375;51.540;7.364;2022-12-18T05:28:31;3.90;85.40
4908;DHT22;64375;51.540;7.364;2022-12-18T05:31:03;4.10;90.50
4908;DHT22;64375;51.540;7.364;2022-12-18T05:33:33;4.00;84.10
4908;DHT22;64375;51.540;7.364;2022-12-18T05:36:05;3.50;76.10
4908;DHT22;64375;51.540;7.364;2022-12-18T05:38:35;3.70;83.40
4908;DHT22;64375;51.540;7.364;2022-12-18T05:41:06;4.00;90.80
4908;DHT22;64375;51.540;7.364;2022-12-18T05:43:35;4.20;90.70
4908;DHT22;64375;51.540;7.364;2022-12-18T05:46:06;3.80;82.70
4908;DHT22;64375;51.540;7.364;2022-12-18T05:48:34;3.80;83.00
4908;DHT22;64375;51.540;7.364;2022-12-18T05:51:08;4.00;86.10
4908;DHT22;64375;51.540;7.364;2022-12-18T05:53:40;3.70;81.00
4908;DHT22;64375;51.540;7.364;2022-12-18T05:56:12;3.60;80.00
4908;DHT22;64375;51.540;7.364;2022-12-18T05:58:41;3.40;78.00
4908;DHT22;64375;51.540;7.364;2022-12-18T06:01:11;3.70;83.40
4908;DHT22;64375;51.540;7.364;2022-12-18T06:03:42;3.70;79.70
4908;DHT22;64375;51.540;7.364;2022-12-18T06:06:16;2.80;67.30
4908;DHT22;64375;51.540;7.364;2022-12-18T06:08:44;2.40;68.00
4908;DHT22;64375;51.540;7.364;2022-12-18T06:11:23;2.10;71.40
4908;DHT22;64375;51.540;7.364;2022-12-18T06:13:52;1.50;67.30
4908;DHT22;64375;51.540;7.364;2022-12-18T06:16:28;1.00;78.60
4908;DHT22;64375;51.540;7.364;2022-12-18T06:18:59;1.60;80.70
4908;DHT22;64375;51.540;7.364;2022-12-18T06:21:29;1.00;73.00
4908;DHT22;64375;51.540;7.364;2022-12-18T06:23:58;0.40;68.40
4908;DHT22;64375;51.540;7.364;2022-12-18T06:26:31;0.10;72.60
4908;DHT22;64375;51.540;7.364;2022-12-18T06:28:59;0.20;76.20
4908;DHT22;64375;51.540;7.364;2022-12-18T06:31:27;0.30;74.50
4908;DHT22;64375;51.540;7.364;2022-12-18T06:33:56;0.70;77.70
4908;DHT22;64375;51.540;7.364;2022-12-18T06:36:24;0.90;74.70
4908;DHT22;64375;51.540;7.364;2022-12-18T06:38:53;1.20;77.80
4908;DHT22;64375;51.540;7.364;2022-12-18T06:41:22;1.80;88.50
4908;DHT22;64375;51.540;7.364;2022-12-18T06:43:53;2.40;91.30
4908;DHT22;64375;51.540;7.364;2022-12-18T06:46:28;2.70;86.40
4908;DHT22;64375;51.540;7.364;2022-12-18T06:49:02;2.90;84.10
4908;DHT22;64375;51.540;7.364;2022-12-18T06:51:35;2.90;81.60
4908;DHT22;64375;51.540;7.364;2022-12-18T06:54:04;2.40;72.10
4908;DHT22;64375;51.540;7.364;2022-12-18T06:56:32;2.50;77.20
4908;DHT22;64375;51.540;7.364;2022-12-18T06:59:00;2.50;75.40
4908;DHT22;64375;51.540;7.364;2022-12-18T07:01:31;2.10;69.40
4908;DHT22;64375;51.540;7.364;2022-12-18T07:04:05;2.10;78.10
4908;DHT22;64375;51.540;7.364;2022-12-18T07:06:33;2.70;91.00
4908;DHT22;64375;51.540;7.364;2022-12-18T07:09:16;2.80;82.70
4908;DHT22;64375;51.540;7.364;2022-12-18T07:11:47;1.40;69.60
4908;DHT22;64375;51.540;7.364;2022-12-18T07:14:18;1.70;80.80
4908;DHT22;64375;51.540;7.364;2022-12-18T07:16:55;2.20;89.60
4908;DHT22;64375;51.540;7.364;2022-12-18T07:19:29;2.30;79.80
4908;DHT22;64375;51.540;7.364;2022-12-18T07:21:57;2.10;79.80
4908;DHT22;64375;51.540;7.364;2022-12-18T07:24:27;3.00;94.30
4908;DHT22;64375;51.540;7.364;2022-12-18T07:27:04;3.40;91.50
4908;DHT22;64375;51.540;7.364;2022-12-18T07:29:39;2.00;76.50
4908;DHT22;64375;51.540;7.364;2022-12-18T07:32:13;1.50;75.80
4908;DHT22;64375;51.540;7.364;2022-12-18T07:34:41;2.10;90.20
4908;DHT22;64375;51.540;7.364;2022-12-18T07:37:09;2.60;91.30
4908;DHT22;64375;51.540;7.364;2022-12-18T07:39:55;2.20;77.40
4908;DHT22;64375;51.540;7.364;2022-12-18T07:42:23;2.00;84.00
4908;DHT22;64375;51.540;7.364;2022-12-18T07:45:04;2.50;89.90
4908;DHT22;64375;51.540;7.364;2022-12-18T07:47:41;3.00;92.10
4908;DHT22;64375;51.540;7.364;2022-12-18T07:50:11;2.80;83.00
4908;DHT22;64375;51.540;7.364;2022-12-18T07:52:39;2.80;83.70
4908;DHT22;64375;51.540;7.364;2022-12-18T07:55:15;3.10;90.30
4908;DHT22;64375;51.540;7.364;2022-12-18T07:57:55;3.50;92.00
4908;DHT22;64375;51.540;7.364;2022-12-18T08:00:26;3.20;80.60
4908;DHT22;64375;51.540;7.364;2022-12-18T08:02:54;4.00;91.10
4908;DHT22;64375;51.540;7.364;2022-12-18T08:05:26;4.20;86.80
4908;DHT22;64375;51.540;7.364;2022-12-18T08:07:54;4.10;86.30
4908;DHT22;64375;51.540;7.364;2022-12-18T08:10:27;4.20;79.60
4908;DHT22;64375;51.540;7.364;2022-12-18T08:12:54;2.20;66.90
4908;DHT22;64375;51.540;7.364;2022-12-18T08:15:38;1.50;86.00
4908;DHT22;64375;51.540;7.364;2022-12-18T08:18:06;2.40;92.20
4908;DHT22;64375;51.540;7.364;2022-12-18T08:20:42;2.00;79.70
4908;DHT22;64375;51.540;7.364;2022-12-18T08:23:10;2.50;88.80
4908;DHT22;64375;51.540;7.364;2022-12-18T08:25:39;2.80;90.30
4908;DHT22;64375;51.540;7.364;2022-12-18T08:28:10;3.30;91.40
4908;DHT22;64375;51.540;7.364;2022-12-18T08:30:38;3.20;83.60
4908;DHT22;64375;51.540;7.364;2022-12-18T08:33:06;3.40;88.20
4908;DHT22;64375;51.540;7.364;2022-12-18T08:35:40;3.10;79.20
4908;DHT22;64375;51.540;7.364;2022-12-18T08:38:11;2.20;76.30
4908;DHT22;64375;51.540;7.364;2022-12-18T08:40:43;1.80;77.50
4908;DHT22;64375;51.540;7.364;2022-12-18T08:43:11;1.40;81.30
4908;DHT22;64375;51.540;7.364;2022-12-18T08:45:57;0.90;79.80
4908;DHT22;64375;51.540;7.364;2022-12-18T08:48:28;0.80;82.60
4908;DHT22;64375;51.540;7.364;2022-12-18T08:50:57;1.10;87.20
4908;DHT22;64375;51.540;7.364;2022-12-18T08:53:34;1.30;86.80
4908;DHT22;64375;51.540;7.364;2022-12-18T08:56:07;1.70;89.30
4908;DHT22;64375;51.540;7.364;2022-12-18T08:58:35;1.70;84.80
4908;DHT22;64375;51.540;7.364;2022-12-18T09:01:05;2.20;90.70
4908;DHT22;64375;51.540;7.364;2022-12-18T09:03:33;2.50;90.50
4908;DHT22;64375;51.540;7.364;2022-12-18T09:06:01;2.70;88.90
4908;DHT22;64375;51.540;7.364;2022-12-18T09:08:35;2.80;87.40
4908;DHT22;64375;51.540;7.364;2022-12-18T09:11:04;2.10;83.20
4908;DHT22;64375;51.540;7.364;2022-12-18T09:13:34;2.10;86.70
4908;DHT22;64375;51.540;7.364;2022-12-18T09:16:03;2.20;87.10
4908;DHT22;64375;51.540;7.364;2022-12-18T09:18:39;1.70;82.50
4908;DHT22;64375;51.540;7.364;2022-12-18T09:21:09;1.20;85.10
4908;DHT22;64375;51.540;7.364;2022-12-18T09:23:42;1.10;88.00
4908;DHT22;64375;51.540;7.364;2022-12-18T09:26:16;0.80;87.00
4908;DHT22;64375;51.540;7.364;2022-12-18T09:28:57;0.40;88.30
4908;DHT22;64375;51.540;7.364;2022-12-18T09:31:28;0.10;90.00
4908;DHT22;64375;51.540;7.364;2022-12-18T09:33:56;0.00;91.10
4908;DHT22;64375;51.540;7.364;2022-12-18T09:36:24;0.30;91.80
4908;DHT22;64375;51.540;7.364;2022-12-18T09:38:52;0.40;92.30
4908;DHT22;64375;51.540;7.364;2022-12-18T09:41:34;0.80;93.10
4908;DHT22;64375;51.540;7.364;2022-12-18T09:44:16;1.20;92.40
4908;DHT22;64375;51.540;7.364;2022-12-18T09:46:49;0.90;90.60
4908;DHT22;64375;51.540;7.364;2022-12-18T09:49:25;0.40;91.10
4908;DHT22;64375;51.540;7.364;2022-12-18T09:51:57;0.60;92.90
4908;DHT22;64375;51.540;7.364;2022-12-18T09:54:33;1.00;93.50
4908;DHT22;64375;51.540;7.364;2022-12-18T09:57:19;0.40;91.40
4908;DHT22;64375;51.540;7.364;2022-12-18T09:59:53;0.20;91.50
4908;DHT22;64375;51.540;7.364;2022-12-18T10:02:33;0.50;94.50
4908;DHT22;64375;51.540;7.364;2022-12-18T10:05:09;0.70;92.70
4908;DHT22;64375;51.540;7.364;2022-12-18T10:07:50;0.70;92.30
4908;DHT22;64375;51.540;7.364;2022-12-18T10:10:30;0.70;92.60
4908;DHT22;64375;51.540;7.364;2022-12-18T10:13:14;1.10;94.90
4908;DHT22;64375;51.540;7.364;2022-12-18T10:18:56;1.30;92.70
4908;DHT22;64375;51.540;7.364;2022-12-18T10:21:41;1.20;94.00
4908;DHT22;64375;51.540;7.364;2022-12-18T10:24:19;1.90;97.20
4908;DHT22;64375;51.540;7.364;2022-12-18T10:26:53;2.10;94.10
4908;DHT22;64375;51.540;7.364;2022-12-18T10:29:25;1.70;92.50
4908;DHT22;64375;51.540;7.364;2022-12-18T10:31:59;1.40;92.00
4908;DHT22;64375;51.540;7.364;2022-12-18T10:34:28;1.20;92.30
4908;DHT22;64375;51.540;7.364;2022-12-18T10:36:56;1.00;93.40
4908;DHT22;64375;51.540;7.364;2022-12-18T10:39:25;1.00;93.60
4908;DHT22;64375;51.540;7.364;2022-12-18T10:42:14;0.80;93.40
4908;DHT22;64375;51.540;7.364;2022-12-18T10:44:43;0.80;94.00
4908;DHT22;64375;51.540;7.364;2022-12-18T10:47:17;0.80;93.70
4908;DHT22;64375;51.540;7.364;2022-12-18T10:49:52;0.80;93.60
4908;DHT22;64375;51.540;7.364;2022-12-18T10:52:23;0.70;93.40
4908;DHT22;64375;51.540;7.364;2022-12-18T10:55:01;0.70;93.70
4908;DHT22;64375;51.540;7.364;2022-12-18T10:57:37;0.80;94.80
4908;DHT22;64375;51.540;7.364;2022-12-18T11:00:27;1.10;95.00
4908;DHT22;64375;51.540;7.364;2022-12-18T11:02:57;1.30;93.90
4908;DHT22;64375;51.540;7.364;2022-12-18T11:05:28;1.30;93.70
4908;DHT22;64375;51.540;7.364;2022-12-18T11:08:00;1.30;93.80
4908;DHT22;64375;51.540;7.364;2022-12-18T11:10:31;1.60;95.00
4908;DHT22;64375;51.540;7.364;2022-12-18T11:13:18;2.10;96.40
4908;DHT22;64375;51.540;7.364;2022-12-18T11:15:48;1.90;92.90
4908;DHT22;64375;51.540;7.364;2022-12-18T11:18:26;1.70;93.40
4908;DHT22;64375;51.540;7.364;2022-12-18T11:20:59;1.80;93.90
4908;DHT22;64375;51.540;7.364;2022-12-18T11:23:27;2.00;93.90
4908;DHT22;64375;51.540;7.364;2022-12-18T11:26:02;2.00;93.20
4908;DHT22;64375;51.540;7.364;2022-12-18T11:28:38;1.80;93.00
4908;DHT22;64375;51.540;7.364;2022-12-18T11:31:19;1.90;94.50
4908;DHT22;64375;51.540;7.364;2022-12-18T11:33:58;2.00;94.30
4908;DHT22;64375;51.540;7.364;2022-12-18T11:36:54;2.10;93.60
4908;DHT22;64375;51.540;7.364;2022-12-18T11:39:35;1.80;92.90
4908;DHT22;64375;51.540;7.364;2022-12-18T11:42:22;1.80;94.30
4908;DHT22;64375;51.540;7.364;2022-12-18T11:44:56;1.90;94.40
4908;DHT22;64375;51.540;7.364;2022-12-18T11:47:38;1.90;93.50
4908;DHT22;64375;51.540;7.364;2022-12-18T11:50:19;1.70;93.80
4908;DHT22;64375;51.540;7.364;2022-12-18T11:52:51;1.80;94.80
4908;DHT22;64375;51.540;7.364;2022-12-18T11:55:39;2.00;94.80
4908;DHT22;64375;51.540;7.364;2022-12-18T11:58:27;2.00;94.10
4908;DHT22;64375;51.540;7.364;2022-12-18T12:01:07;2.00;94.60
4908;DHT22;64375;51.540;7.364;2022-12-18T12:04:03;2.20;94.80
4908;DHT22;64375;51.540;7.364;2022-12-18T12:06:51;2.30;94.30
4908;DHT22;64375;51.540;7.364;2022-12-18T12:09:36;2.10;93.50
4908;DHT22;64375;51.540;7.364;2022-12-18T12:12:23;1.90;93.90
4908;DHT22;64375;51.540;7.364;2022-12-18T12:15:04;1.90;95.00
4908;DHT22;64375;51.540;7.364;2022-12-18T12:17:42;2.20;95.80
4908;DHT22;64375;51.540;7.364;2022-12-18T12:20:21;2.50;96.90
4908;DHT22;64375;51.540;7.364;2022-12-18T12:22:57;3.10;97.10
4908;DHT22;64375;51.540;7.364;2022-12-18T12:25:40;3.20;94.40
4908;DHT22;64375;51.540;7.364;2022-12-18T12:28:29;3.10;93.20
4908;DHT22;64375;51.540;7.364;2022-12-18T12:31:36;2.90;93.50
4908;DHT22;64375;51.540;7.364;2022-12-18T12:34:16;2.90;93.80
4908;DHT22;64375;51.540;7.364;2022-12-18T12:36:59;2.70;93.30
4908;DHT22;64375;51.540;7.364;2022-12-18T12:39:38;2.40;93.90
4908;DHT22;64375;51.540;7.364;2022-12-18T12:42:19;2.40;94.60
4908;DHT22;64375;51.540;7.364;2022-12-18T12:45:04;2.40;94.20
4908;DHT22;64375;51.540;7.364;2022-12-18T12:47:39;2.30;94.20
4908;DHT22;64375;51.540;7.364;2022-12-18T12:50:15;2.10;94.20
4908;DHT22;64375;51.540;7.364;2022-12-18T12:52:46;2.30;97.00
4908;DHT22;64375;51.540;7.364;2022-12-18T12:55:24;2.70;96.00
4908;DHT22;64375;51.540;7.364;2022-12-18T12:57:59;2.70;94.50
4908;DHT22;64375;51.540;7.364;2022-12-18T13:00:40;2.50;93.70
4908;DHT22;64375;51.540;7.364;2022-12-18T13:03:23;2.40;94.20
4908;DHT22;64375;51.540;7.364;2022-12-18T13:06:00;2.60;95.80
4908;DHT22;64375;51.540;7.364;2022-12-18T13:08:33;2.60;94.40
4908;DHT22;64375;51.540;7.364;2022-12-18T13:11:31;2.50;94.00
4908;DHT22;64375;51.540;7.364;2022-12-18T13:14:31;2.40;95.90
4908;DHT22;64375;51.540;7.364;2022-12-18T13:17:30;2.60;95.00
4908;DHT22;64375;51.540;7.364;2022-12-18T13:20:22;2.50;94.40
4908;DHT22;64375;51.540;7.364;2022-12-18T13:23:26;2.30;94.70
4908;DHT22;64375;51.540;7.364;2022-12-18T13:25:58;2.30;96.40
4908;DHT22;64375;51.540;7.364;2022-12-18T13:28:51;2.60;96.40
4908;DHT22;64375;51.540;7.364;2022-12-18T13:31:58;2.70;95.00
4908;DHT22;64375;51.540;7.364;2022-12-18T13:34:28;2.60;95.40
4908;DHT22;64375;51.540;7.364;2022-12-18T13:43:30;3.30;94.00
4908;DHT22;64375;51.540;7.364;2022-12-18T13:46:03;3.10;94.10
4908;DHT22;64375;51.540;7.364;2022-12-18T13:48:34;3.30;95.50
4908;DHT22;64375;51.540;7.364;2022-12-18T13:51:05;3.40;94.90
4908;DHT22;64375;51.540;7.364;2022-12-18T13:53:38;3.60;94.80
4908;DHT22;64375;51.540;7.364;2022-12-18T13:56:15;3.50;93.80
4908;DHT22;64375;51.540;7.364;2022-12-18T13:59:08;3.50;94.60
4908;DHT22;64375;51.540;7.364;2022-12-18T14:01:53;3.80;95.20
4908;DHT22;64375;51.540;7.364;2022-12-18T14:04:25;4.20;98.50
4908;DHT22;64375;51.540;7.364;2022-12-18T14:06:58;5.00;97.40
4908;DHT22;64375;51.540;7.364;2022-12-18T14:09:31;5.00;95.10
4908;DHT22;64375;51.540;7.364;2022-12-18T14:12:03;4.70;93.40
4908;DHT22;64375;51.540;7.364;2022-12-18T14:14:50;4.60;93.70
4908;DHT22;64375;51.540;7.364;2022-12-18T14:17:31;4.50;92.60
4908;DHT22;64375;51.540;7.364;2022-12-18T14:20:14;4.10;92.80
4908;DHT22;64375;51.540;7.364;2022-12-18T14:22:52;4.20;93.90
4908;DHT22;64375;51.540;7.364;2022-12-18T14:25:22;4.00;92.80
4908;DHT22;64375;51.540;7.364;2022-12-18T14:28:04;3.80;92.90
4908;DHT22;64375;51.540;7.364;2022-12-18T14:30:37;3.90;94.10
4908;DHT22;64375;51.540;7.364;2022-12-18T14:33:14;3.80;92.90
4908;DHT22;64375;51.540;7.364;2022-12-18T14:35:52;3.80;94.00
4908;DHT22;64375;51.540;7.364;2022-12-18T14:38:28;4.00;95.50
4908;DHT22;64375;51.540;7.364;2022-12-18T14:41:01;4.00;93.20
4908;DHT22;64375;51.540;7.364;2022-12-18T14:43:31;4.00;95.10
4908;DHT22;64375;51.540;7.364;2022-12-18T14:46:03;3.90;93.60
4908;DHT22;64375;51.540;7.364;2022-12-18T14:48:37;3.80;93.00
4908;DHT22;64375;51.540;7.364;2022-12-18T14:51:16;3.80;95.00
4908;DHT22;64375;51.540;7.364;2022-12-18T14:54:02;4.20;95.90
4908;DHT22;64375;51.540;7.364;2022-12-18T14:56:33;4.70;96.10
4908;DHT22;64375;51.540;7.364;2022-12-18T14:59:06;4.70;92.80
4908;DHT22;64375;51.540;7.364;2022-12-18T15:02:03;5.30;97.10
4908;DHT22;64375;51.540;7.364;2022-12-18T15:04:44;6.00;96.60
4908;DHT22;64375;51.540;7.364;2022-12-18T15:07:14;6.20;95.10
4908;DHT22;64375;51.540;7.364;2022-12-18T15:10:01;6.60;96.30
4908;DHT22;64375;51.540;7.364;2022-12-18T15:12:34;7.10;96.70
4908;DHT22;64375;51.540;7.364;2022-12-18T15:15:03;7.30;92.70
4908;DHT22;64375;51.540;7.364;2022-12-18T15:17:31;7.40;93.50
4908;DHT22;64375;51.540;7.364;2022-12-18T15:20:09;7.60;94.30
4908;DHT22;64375;51.540;7.364;2022-12-18T15:22:41;7.40;90.90
4908;DHT22;64375;51.540;7.364;2022-12-18T15:25:27;7.40;92.20
4908;DHT22;64375;51.540;7.364;2022-12-18T15:28:19;7.50;92.80
4908;DHT22;64375;51.540;7.364;2022-12-18T15:31:29;6.90;88.60
4908;DHT22;64375;51.540;7.364;2022-12-18T15:34:19;6.90;91.40
4908;DHT22;64375;51.540;7.364;2022-12-18T15:36:58;7.10;92.00
4908;DHT22;64375;51.540;7.364;2022-12-18T15:39:34;6.50;83.90
4908;DHT22;64375;51.540;7.364;2022-12-18T15:42:11;6.60;90.10
4908;DHT22;64375;51.540;7.364;2022-12-18T15:45:02;7.10;94.10
4908;DHT22;64375;51.540;7.364;2022-12-18T15:47:37;7.00;91.10
4908;DHT22;64375;51.540;7.364;2022-12-18T15:50:06;7.20;92.80
4908;DHT22;64375;51.540;7.364;2022-12-18T15:52:40;7.30;92.80
4908;DHT22;64375;51.540;7.364;2022-12-18T15:55:15;7.20;90.60
4908;DHT22;64375;51.540;7.364;2022-12-18T15:58:08;7.10;89.10
4908;DHT22;64375;51.540;7.364;2022-12-18T16:00:39;7.50;93.70
4908;DHT22;64375;51.540;7.364;2022-12-18T16:03:10;7.10;85.00
4908;DHT22;64375;51.540;7.364;2022-12-18T16:05:41;7.10;91.10
4908;DHT22;64375;51.540;7.364;2022-12-18T16:08:19;7.10;91.20
4908;DHT22;64375;51.540;7.364;2022-12-18T16:10:47;6.70;83.70
4908;DHT22;64375;51.540;7.364;2022-12-18T16:13:29;6.60;90.00
4908;DHT22;64375;51.540;7.364;2022-12-18T16:16:04;6.90;91.60
4908;DHT22;64375;51.540;7.364;2022-12-18T16:18:38;6.90;90.00
4908;DHT22;64375;51.540;7.364;2022-12-18T16:21:07;6.30;82.20
4908;DHT22;64375;51.540;7.364;2022-12-18T16:23:36;6.30;89.40
4908;DHT22;64375;51.540;7.364;2022-12-18T16:26:07;6.60;90.80
4908;DHT22;64375;51.540;7.364;2022-12-18T16:28:35;6.50;89.00
4908;DHT22;64375;51.540;7.364;2022-12-18T16:31:22;6.90;92.20
4908;DHT22;64375;51.540;7.364;2022-12-18T16:34:15;6.50;87.50
4908;DHT22;64375;51.540;7.364;2022-12-18T16:36:51;6.20;87.20
4908;DHT22;64375;51.540;7.364;2022-12-18T16:39:26;6.20;86.90
4908;DHT22;64375;51.540;7.364;2022-12-18T16:41:56;6.50;91.80
4908;DHT22;64375;51.540;7.364;2022-12-18T16:44:26;6.40;87.20
4908;DHT22;64375;51.540;7.364;2022-12-18T16:46:54;6.90;91.50
4908;DHT22;64375;51.540;7.364;2022-12-18T16:49:42;6.90;91.80
4908;DHT22;64375;51.540;7.364;2022-12-18T16:52:19;6.50;81.70
4908;DHT22;64375;51.540;7.364;2022-12-18T16:54:51;6.60;91.00
4908;DHT22;64375;51.540;7.364;2022-12-18T16:57:28;6.70;92.70
4908;DHT22;64375;51.540;7.364;2022-12-18T16:59:55;7.00;91.10
4908;DHT22;64375;51.540;7.364;2022-12-18T17:02:30;7.50;95.00